Time;durP1;ratioP1;P1;durP2;ratioP2;P2;SDS_P1;SDS_P2;PMS_P1;PMS_P2;Temp;Humidity;BMP_temperature;BMP_pressure;BME280_temperature;BME280_humidity;BME280_pressure;Samples;Min_cycle;Max_cycle;Signal;HPM_P1;HPM_P2
2023/04/27 00:00:57;;;;;;;8.85;5.10;;;;;;;-146.25;100.00;52307.38;2080433;28;34490;-69
2023/04/27 00:01:59;;;;;;;10.27;5.13;;;;;;;-146.25;100.00;52254.66;2080390;28;32479;-68
2023/04/27 00:03:04;;;;;;;14.57;6.22;;;;;;;-146.25;100.00;52281.00;2081526;28;20799;-69
2023/04/27 00:04:06;;;;;;;9.07;5.50;;;;;;;-146.25;100.00;52291.16;2080853;28;35568;-69
2023/04/27 00:05:10;;;;;;;10.27;5.20;;;;;;;-146.25;100.00;52293.19;2081103;28;29539;-69
2023/04/27 00:06:12;;;;;;;8.18;4.40;;;;;;;-146.25;100.00;52291.16;2088136;28;33514;-69
2023/04/27 00:07:14;;;;;;;9.48;4.90;;;;;;;-146.25;100.00;52250.59;2087796;28;31911;-69
2023/04/27 00:08:15;;;;;;;11.25;5.35;;;;;;;-146.25;100.00;52272.91;2081294;28;20042;-69
2023/04/27 00:09:17;;;;;;;10.10;5.10;;;;;;;-146.25;100.00;52293.19;2081121;28;33884;-69
2023/04/27 00:10:19;;;;;;;8.05;5.43;;;;;;;-146.25;100.00;52301.28;2080192;28;30615;-70
2023/04/27 00:11:21;;;;;;;9.80;4.50;;;;;;;-146.25;100.00;52246.53;2081012;28;31992;-69
2023/04/27 00:12:25;;;;;;;9.48;4.82;;;;;;;-146.25;100.00;52266.81;2080377;28;32731;-69
2023/04/27 00:13:27;;;;;;;10.20;5.10;;;;;;;-146.25;100.00;52295.19;2081363;28;20899;-69
2023/04/27 00:14:29;;;;;;;10.18;5.32;;;;;;;-146.25;100.00;52291.16;2087846;28;35992;-69
2023/04/27 00:15:31;;;;;;;12.38;5.47;;;;;;;-146.25;100.00;52274.94;2088753;28;29361;-69
2023/04/27 00:16:32;;;;;;;15.10;5.47;;;;;;;-146.25;100.00;52283.03;2080488;28;35364;-68
2023/04/27 00:17:34;;;;;;;8.70;4.97;;;;;;;-146.25;100.00;52299.25;2080561;28;36165;-70
2023/04/27 00:18:36;;;;;;;13.98;5.57;;;;;;;-146.25;100.00;52281.00;2080534;28;34288;-71
2023/04/27 00:19:40;;;;;;;10.43;5.38;;;;;;;-146.25;100.00;52311.44;2081651;28;20084;-71
2023/04/27 00:20:43;;;;;;;10.82;5.32;;;;;;;-146.25;100.00;52319.53;2080461;28;33237;-70
2023/04/27 00:21:45;;;;;;;10.85;5.05;;;;;;;-146.25;100.00;52258.72;2080307;28;35208;-70
2023/04/27 00:22:47;;;;;;;10.80;5.40;;;;;;;-146.25;100.00;52276.97;2080520;28;34067;-70
2023/04/27 00:23:48;;;;;;;8.23;5.13;;;;;;;-146.25;100.00;52311.44;2080466;28;38904;-70
2023/04/27 00:24:50;;;;;;;9.38;4.72;;;;;;;-146.25;100.00;52291.16;2080070;28;34205;-71
2023/04/27 00:25:52;;;;;;;13.73;5.45;;;;;;;-146.25;100.00;52270.88;2080658;28;37638;-70
2023/04/27 00:26:54;;;;;;;12.25;5.53;;;;;;;-146.25;100.00;52309.41;2080105;28;35962;-70
2023/04/27 00:27:56;;;;;;;10.70;5.68;;;;;;;-146.25;100.00;52291.16;2080507;28;20046;-71
2023/04/27 00:28:58;;;;;;;9.35;4.72;;;;;;;-146.25;100.00;52274.94;2080204;28;20133;-70
2023/04/27 00:30:00;;;;;;;11.60;5.38;;;;;;;-146.25;100.00;52285.06;2080711;28;20044;-70
2023/04/27 00:31:03;;;;;;;12.13;5.50;;;;;;;-146.25;100.00;52291.16;2080383;28;28549;-69
2023/04/27 00:32:06;;;;;;;10.90;4.93;;;;;;;-146.25;100.00;52283.03;2081310;28;20141;-69
2023/04/27 00:33:08;;;;;;;9.65;4.80;;;;;;;-146.25;100.00;52315.47;2079473;28;33575;-70
2023/04/27 00:34:10;;;;;;;9.35;5.13;;;;;;;-146.25;100.00;52274.94;2080028;28;27013;-70
2023/04/27 00:35:11;;;;;;;8.68;5.30;;;;;;;-146.25;100.00;52303.31;2080140;28;20046;-71
2023/04/27 00:36:15;;;;;;;12.38;5.50;;;;;;;-146.25;100.00;52295.19;2080606;28;20034;-71
2023/04/27 00:37:17;;;;;;;11.73;5.32;;;;;;;-146.25;100.00;52329.66;2079651;28;31535;-70
2023/04/27 00:38:20;;;;;;;12.13;5.43;;;;;;;-146.25;100.00;52274.94;2080624;28;20042;-70
2023/04/27 00:39:21;;;;;;;11.90;5.13;;;;;;;-146.25;100.00;52270.88;2079296;28;36195;-71
2023/04/27 00:40:23;;;;;;;7.38;5.35;;;;;;;-146.25;100.00;52283.03;2080400;28;26510;-71
2023/04/27 00:41:26;;;;;;;10.05;4.93;;;;;;;-146.25;100.00;52291.16;2081005;28;20030;-70
2023/04/27 00:42:30;;;;;;;11.40;5.20;;;;;;;-146.25;100.00;52329.66;2079914;28;30961;-70
2023/04/27 00:43:40;;;;;;;13.25;5.20;;;;;;;-146.25;100.00;52299.25;2080717;28;20088;-71
2023/04/27 00:44:42;;;;;;;;;;;;;;;-146.25;100.00;52317.50;2080727;28;24714;-71
2023/04/27 00:45:45;;;;;;;10.93;4.20;;;;;;;-146.25;100.00;52287.09;2080391;28;27958;-71
2023/04/27 00:46:47;;;;;;;11.63;4.68;;;;;;;-146.25;100.00;52297.22;2080115;28;23910;-70
2023/04/27 00:47:49;;;;;;;8.82;5.07;;;;;;;-146.25;100.00;52313.44;2071721;28;29640;-70
2023/04/27 00:48:51;;;;;;;11.00;5.03;;;;;;;-146.25;100.00;52293.19;2080629;28;20164;-71
2023/04/27 00:49:54;;;;;;;11.43;5.35;;;;;;;-146.25;100.00;52287.09;2079425;28;34448;-71
2023/04/27 00:50:59;;;;;;;9.63;5.38;;;;;;;-146.25;100.00;52283.03;2080520;28;20038;-71
2023/04/27 00:52:04;;;;;;;10.45;5.30;;;;;;;-146.25;100.00;52291.16;2072126;28;20982;-71
2023/04/27 00:53:06;;;;;;;14.00;6.20;;;;;;;-146.25;100.00;52311.44;2080251;28;28134;-70
2023/04/27 00:54:08;;;;;;;11.43;5.90;;;;;;;-146.25;100.00;52291.16;2080349;28;29051;-71
2023/04/27 00:55:12;;;;;;;13.38;6.10;;;;;;;-146.25;100.00;52331.69;2079662;28;26116;-71
2023/04/27 00:56:15;;;;;;;10.52;6.25;;;;;;;-146.25;100.00;52307.38;2079575;28;27331;-71
2023/04/27 00:57:17;;;;;;;13.10;6.60;;;;;;;-146.25;100.00;52250.59;2081348;28;20045;-71
2023/04/27 00:58:20;;;;;;;13.32;6.55;;;;;;;-146.25;100.00;52272.91;2080036;28;20038;-71
2023/04/27 00:59:21;;;;;;;14.07;6.70;;;;;;;-146.25;100.00;52262.75;2080063;28;29660;-71
2023/04/27 01:00:25;;;;;;;12.38;6.72;;;;;;;-146.25;100.00;52311.44;2088451;28;21071;-70
2023/04/27 01:01:29;;;;;;;14.02;7.40;;;;;;;-146.25;100.00;52297.22;2088063;28;21177;-71
2023/04/27 01:02:33;;;;;;;14.70;7.78;;;;;;;-146.25;100.00;52283.03;2088104;28;27037;-70
2023/04/27 01:03:35;;;;;;;13.45;6.97;;;;;;;-146.25;100.00;52295.19;2079247;28;20932;-69
2023/04/27 01:04:37;;;;;;;11.10;6.15;;;;;;;-146.25;100.00;52274.94;2071772;28;22032;-70
2023/04/27 01:05:40;;;;;;;13.48;6.88;;;;;;;-146.25;100.00;52299.25;2071705;28;28738;-71
2023/04/27 01:06:43;;;;;;;13.80;7.00;;;;;;;-146.25;100.00;52272.91;2079734;28;29866;-71
2023/04/27 01:07:44;;;;;;;14.52;6.75;;;;;;;-146.25;100.00;52283.03;2080273;28;21985;-71
2023/04/27 01:08:46;;;;;;;9.48;5.60;;;;;;;-146.25;100.00;52281.00;2087961;28;24364;-70
2023/04/27 01:09:48;;;;;;;13.50;6.25;;;;;;;-146.25;100.00;52335.75;2079346;28;27680;-70
2023/04/27 01:10:50;;;;;;;13.80;6.45;;;;;;;-146.25;100.00;52319.53;2079991;28;25817;-71
2023/04/27 01:11:54;;;;;;;11.45;6.35;;;;;;;-146.25;100.00;52274.94;2079823;28;30775;-71
2023/04/27 01:12:56;;;;;;;11.60;5.90;;;;;;;-146.25;100.00;52291.16;2079707;28;35140;-71
2023/04/27 01:14:03;;;;;;;14.02;6.20;;;;;;;-146.25;100.00;52281.00;2088268;28;20144;-72
2023/04/27 01:15:06;;;;;;;8.20;4.82;;;;;;;-146.25;100.00;52305.34;2087665;28;30001;-71
2023/04/27 01:16:10;;;;;;;10.40;5.75;;;;;;;-146.25;100.00;52295.19;2087646;28;28013;-71
2023/04/27 01:17:13;;;;;;;12.70;5.60;;;;;;;-146.25;100.00;52287.09;2080005;28;20861;-72
2023/04/27 01:18:14;;;;;;;14.95;5.65;;;;;;;-146.25;100.00;52278.97;2079767;28;33002;-70
2023/04/27 01:19:16;;;;;;;11.13;5.95;;;;;;;-146.25;100.00;52307.38;2080439;28;27080;-69
2023/04/27 01:20:19;;;;;;;11.63;5.85;;;;;;;-146.25;100.00;52311.44;2080653;28;20030;-69
2023/04/27 01:21:20;;;;;;;14.18;7.15;;;;;;;-146.25;100.00;52270.88;2080411;28;20124;-70
2023/04/27 01:22:22;;;;;;;10.50;6.07;;;;;;;-146.25;100.00;52295.19;2088857;28;20064;-69
2023/04/27 01:23:25;;;;;;;15.35;5.95;;;;;;;-146.25;100.00;52270.88;2079900;28;20093;-70
2023/04/27 01:24:26;;;;;;;12.32;6.20;;;;;;;-146.25;100.00;52315.47;2079633;28;28670;-70
2023/04/27 01:25:28;;;;;;;10.88;6.07;;;;;;;-146.25;100.00;52303.31;2080611;28;20053;-69
2023/04/27 01:26:36;;;;;;;10.68;6.32;;;;;;;-146.25;100.00;52293.19;2081237;28;20046;-70
2023/04/27 01:27:38;;;;;;;14.15;6.70;;;;;;;-146.25;100.00;52315.47;2087944;28;23919;-69
2023/04/27 01:28:39;;;;;;;14.40;6.40;;;;;;;-146.25;100.00;52295.19;2087252;28;32780;-70
2023/04/27 01:29:45;;;;;;;13.85;6.47;;;;;;;-146.25;100.00;52295.19;2080121;28;20201;-68
2023/04/27 01:30:46;;;;;;;9.27;5.70;;;;;;;-146.25;100.00;52289.13;2080265;28;22623;-69
2023/04/27 01:31:48;;;;;;;10.13;6.10;;;;;;;-146.25;100.00;52295.19;2079973;28;20902;-69
2023/04/27 01:32:50;;;;;;;12.18;5.68;;;;;;;-146.25;100.00;52283.03;2079469;28;35668;-69
2023/04/27 01:33:54;;;;;;;8.43;5.65;;;;;;;-146.25;100.00;52303.31;2079578;28;20103;-69
2023/04/27 01:34:55;;;;;;;9.85;5.32;;;;;;;-146.25;100.00;52287.09;2079325;28;27295;-69
2023/04/27 01:35:59;;;;;;;9.57;5.78;;;;;;;-146.25;100.00;52285.06;2080597;28;20049;-69
2023/04/27 01:37:02;;;;;;;11.45;6.20;;;;;;;-146.25;100.00;52266.81;2080075;28;20046;-69
2023/04/27 01:38:04;;;;;;;9.05;5.82;;;;;;;-146.25;100.00;52315.47;2079595;28;33776;-69
2023/04/27 01:39:08;;;;;;;12.93;6.50;;;;;;;-146.25;100.00;52323.59;2079507;28;30228;-70
2023/04/27 01:40:10;;;;;;;13.13;5.88;;;;;;;-146.25;100.00;52281.00;2079159;28;25106;-69
2023/04/27 01:41:12;;;;;;;10.82;6.13;;;;;;;-146.25;100.00;52262.75;2079719;28;23747;-69
2023/04/27 01:42:15;;;;;;;9.35;5.28;;;;;;;-146.25;100.00;52323.59;2079742;28;20852;-68
2023/04/27 01:43:17;;;;;;;10.02;5.30;;;;;;;-146.25;100.00;52291.16;2079586;28;29120;-69
2023/04/27 01:44:20;;;;;;;11.35;6.22;;;;;;;-146.25;100.00;52295.19;2079475;28;20081;-69
2023/04/27 01:45:22;;;;;;;10.18;5.90;;;;;;;-146.25;100.00;52299.25;2079877;28;26984;-68
2023/04/27 01:46:24;;;;;;;10.85;5.95;;;;;;;-146.25;100.00;52287.09;2079611;28;20037;-68
2023/04/27 01:47:26;;;;;;;12.27;6.55;;;;;;;-146.25;100.00;52272.91;2079818;28;20049;-69
2023/04/27 01:48:28;;;;;;;10.88;6.03;;;;;;;-146.25;100.00;52341.84;2071616;28;29416;-68
2023/04/27 01:49:30;;;;;;;11.13;6.22;;;;;;;-146.25;100.00;52317.50;2079201;28;30274;-68
2023/04/27 01:50:34;;;;;;;12.43;6.00;;;;;;;-146.25;100.00;52285.06;2080743;28;20178;-68
2023/04/27 01:51:36;;;;;;;10.32;5.40;;;;;;;-146.25;100.00;52268.84;2079571;28;21594;-68
2023/04/27 01:52:37;;;;;;;10.70;5.78;;;;;;;-146.25;100.00;52264.78;2079600;28;20038;-68
2023/04/27 01:53:40;;;;;;;11.02;6.20;;;;;;;-146.25;100.00;52270.88;2071326;28;20045;-69
2023/04/27 01:54:43;;;;;;;11.30;5.88;;;;;;;-146.25;100.00;52339.81;2078434;28;20100;-68
2023/04/27 01:55:45;;;;;;;14.35;6.22;;;;;;;-146.25;100.00;52291.16;2080216;28;20049;-68
2023/04/27 01:56:46;;;;;;;10.60;6.05;;;;;;;-146.25;100.00;52289.13;2088168;28;20037;-68
2023/04/27 01:57:48;;;;;;;8.73;5.72;;;;;;;-146.25;100.00;52309.41;2079940;28;20038;-68
2023/04/27 01:58:52;;;;;;;10.38;6.07;;;;;;;-146.25;100.00;52325.63;2063513;28;20828;-69
2023/04/27 01:59:56;;;;;;;16.48;5.38;;;;;;;-146.25;100.00;52291.16;2072988;28;20242;-69
2023/04/27 02:00:58;;;;;;;12.15;5.80;;;;;;;-146.25;100.00;52315.47;2084385;28;20045;-69
2023/04/27 02:02:00;;;;;;;14.38;7.40;;;;;;;-146.25;100.00;52270.88;2088276;28;20049;-68
2023/04/27 02:03:04;;;;;;;15.55;6.53;;;;;;;-146.25;100.00;52299.25;2087726;28;20076;-68
2023/04/27 02:04:06;;;;;;;13.40;6.82;;;;;;;-146.25;100.00;52260.72;2088407;28;20133;-68
2023/04/27 02:05:09;;;;;;;14.30;6.53;;;;;;;-146.25;100.00;52276.97;2088090;28;20909;-64
2023/04/27 02:06:11;;;;;;;12.68;6.35;;;;;;;-146.25;100.00;52274.94;2079354;28;27853;-66
2023/04/27 02:07:13;;;;;;;10.75;5.82;;;;;;;-146.25;100.00;52283.03;2079744;28;20041;-63
2023/04/27 02:08:15;;;;;;;12.32;6.20;;;;;;;-146.25;100.00;52323.59;2079613;28;20119;-61
2023/04/27 02:09:18;;;;;;;13.57;6.40;;;;;;;-146.25;100.00;52274.94;2079679;28;20057;-67
2023/04/27 02:10:21;;;;;;;12.75;7.00;;;;;;;-146.25;100.00;52303.31;2070604;28;27106;-64
2023/04/27 02:11:22;;;;;;;15.52;6.43;;;;;;;-146.25;100.00;52313.44;2079407;28;26975;-62
2023/04/27 02:12:24;;;;;;;10.15;5.45;;;;;;;-146.25;100.00;52289.13;2096200;28;20051;-60
2023/04/27 02:13:26;;;;;;;11.80;5.93;;;;;;;-146.25;100.00;52313.44;2087502;28;28432;-65
2023/04/27 02:14:28;;;;;;;9.68;5.97;;;;;;;-146.25;100.00;52305.34;2071501;28;26464;-64
2023/04/27 02:15:29;;;;;;;13.27;6.00;;;;;;;-146.25;100.00;52287.09;2071897;28;20026;-62
2023/04/27 02:16:33;;;;;;;11.50;6.20;;;;;;;-146.25;100.00;52313.44;2063125;28;32025;-65
2023/04/27 02:17:38;;;;;;;12.70;6.47;;;;;;;-146.25;100.00;52283.03;2063482;28;23067;-66
2023/04/27 02:18:40;;;;;;;12.93;5.95;;;;;;;-146.25;100.00;52333.72;2071606;28;27639;-64
2023/04/27 02:19:43;;;;;;;16.02;6.70;;;;;;;-146.25;100.00;52274.94;2072474;28;20161;-64
2023/04/27 02:20:45;;;;;;;13.07;5.88;;;;;;;-146.25;100.00;52319.53;2071780;28;26538;-69
2023/04/27 02:21:49;;;;;;;12.48;5.72;;;;;;;-146.25;100.00;52327.66;2070553;28;30427;-67
2023/04/27 02:22:52;;;;;;;10.52;5.53;;;;;;;-146.25;100.00;52266.81;2063882;28;28406;-69
2023/04/27 02:23:53;;;;;;;12.95;6.15;;;;;;;-146.25;100.00;52258.72;2062892;28;28933;-67
2023/04/27 02:24:55;;;;;;;12.13;5.68;;;;;;;-146.25;100.00;52315.47;2070672;28;32030;-69
2023/04/27 02:25:59;;;;;;;13.40;5.78;;;;;;;-146.25;100.00;52315.47;2071110;28;28055;-69
2023/04/27 02:27:03;;;;;;;11.50;5.72;;;;;;;-146.25;100.00;52287.09;2071128;28;27562;-69
2023/04/27 02:28:05;;;;;;;10.27;5.25;;;;;;;-146.25;100.00;52323.59;2071495;28;20042;-69
2023/04/27 02:29:07;;;;;;;10.13;5.38;;;;;;;-146.25;100.00;52285.06;2071509;28;20026;-69
2023/04/27 02:30:11;;;;;;;14.00;5.68;;;;;;;-146.25;100.00;52268.84;2071145;28;20117;-69
2023/04/27 02:31:13;;;;;;;12.23;5.65;;;;;;;-146.25;100.00;52305.34;2071068;28;27079;-69
2023/04/27 02:32:15;;;;;;;8.60;5.53;;;;;;;-146.25;100.00;52309.41;2062889;28;25233;-70
2023/04/27 02:33:17;;;;;;;8.07;5.40;;;;;;;-146.25;100.00;52309.41;2071426;28;20885;-69
2023/04/27 02:34:19;;;;;;;10.00;5.60;;;;;;;-146.25;100.00;52313.44;2071775;28;20046;-69
2023/04/27 02:35:21;;;;;;;13.10;5.78;;;;;;;-146.25;100.00;52283.03;2071674;28;26338;-68
2023/04/27 02:36:23;;;;;;;10.77;5.63;;;;;;;-146.25;100.00;52283.03;2072050;28;20034;-69
2023/04/27 02:37:24;;;;;;;8.98;5.40;;;;;;;-146.25;100.00;52319.53;2071361;28;20848;-69
2023/04/27 02:38:28;;;;;;;8.63;6.00;;;;;;;-146.25;100.00;52285.06;2071539;28;20702;-69
2023/04/27 02:39:30;;;;;;;12.82;5.32;;;;;;;-146.25;100.00;52307.38;2070894;28;23655;-70
2023/04/27 02:40:35;;;;;;;11.23;5.88;;;;;;;-146.25;100.00;52295.19;2071023;28;28244;-71
2023/04/27 02:41:39;;;;;;;14.88;5.80;;;;;;;-146.25;100.00;52315.47;2071589;28;21033;-70
2023/04/27 02:42:42;;;;;;;13.18;5.78;;;;;;;-146.25;100.00;52262.75;2071241;28;20042;-70
2023/04/27 02:43:45;;;;;;;10.25;6.25;;;;;;;-146.25;100.00;52276.97;2065512;28;20058;-70
2023/04/27 02:44:47;;;;;;;10.10;5.32;;;;;;;-146.25;100.00;52291.16;2071435;28;26673;-69
2023/04/27 02:45:49;;;;;;;9.07;5.35;;;;;;;-146.25;100.00;52299.25;2071221;28;28900;-70
2023/04/27 02:46:51;;;;;;;10.77;4.88;;;;;;;-146.25;100.00;52274.94;2071495;28;20904;-70
2023/04/27 02:47:55;;;;;;;9.25;5.28;;;;;;;-146.25;100.00;52307.38;2071446;28;20129;-69
2023/04/27 02:48:59;;;;;;;9.20;5.20;;;;;;;-146.25;100.00;52283.03;2071385;28;23663;-70
2023/04/27 02:50:03;;;;;;;13.73;5.55;;;;;;;-146.25;100.00;52323.59;2071308;28;20939;-70
2023/04/27 02:51:08;;;;;;;8.45;5.15;;;;;;;-146.25;100.00;52291.16;2063511;28;20049;-70
2023/04/27 02:52:12;;;;;;;8.73;5.57;;;;;;;-146.25;100.00;52303.31;2071076;28;22447;-70
2023/04/27 02:53:14;;;;;;;10.00;5.88;;;;;;;-146.25;100.00;52258.72;2072091;28;20026;-71
2023/04/27 02:54:16;;;;;;;10.45;5.70;;;;;;;-146.25;100.00;52289.13;2071078;28;20116;-70
2023/04/27 02:55:20;;;;;;;9.88;5.65;;;;;;;-146.25;100.00;52315.47;2062982;28;20153;-70
2023/04/27 02:56:22;;;;;;;8.23;5.00;;;;;;;-146.25;100.00;52323.59;2071300;28;20043;-70
2023/04/27 02:57:24;;;;;;;12.93;6.30;;;;;;;-146.25;100.00;52311.44;2071732;28;20170;-70
2023/04/27 02:58:26;;;;;;;9.25;5.65;;;;;;;-146.25;100.00;52325.63;2072140;28;20034;-70
2023/04/27 02:59:28;;;;;;;14.15;5.60;;;;;;;-146.25;100.00;52270.88;2072231;28;20038;-70
2023/04/27 03:00:30;;;;;;;8.98;5.20;;;;;;;-146.25;100.00;52301.28;2070906;28;20054;-70
2023/04/27 03:01:31;;;;;;;9.95;5.35;;;;;;;-146.25;100.00;52287.09;2062733;28;33528;-70
2023/04/27 03:02:33;;;;;;;11.40;6.57;;;;;;;-146.25;100.00;52268.84;2071315;28;20069;-70
2023/04/27 03:03:35;;;;;;;9.05;5.97;;;;;;;-146.25;100.00;52293.19;2071896;28;20093;-71
2023/04/27 03:04:37;;;;;;;10.70;6.13;;;;;;;-146.25;100.00;52329.66;2071094;28;20774;-71
2023/04/27 03:05:39;;;;;;;9.18;5.03;;;;;;;-146.25;100.00;52285.06;2070885;28;20161;-70
2023/04/27 03:06:41;;;;;;;10.07;5.82;;;;;;;-146.25;100.00;52274.94;2071630;28;20970;-70
2023/04/27 03:07:43;;;;;;;11.82;5.90;;;;;;;-146.25;100.00;52274.94;2071062;28;26433;-70
2023/04/27 03:08:45;;;;;;;15.75;6.50;;;;;;;-146.25;100.00;52311.44;2071588;28;26089;-70
2023/04/27 03:09:47;;;;;;;10.07;5.68;;;;;;;-146.25;100.00;52289.13;2071339;28;28195;-70
2023/04/27 03:10:48;;;;;;;11.88;6.03;;;;;;;-146.25;100.00;52258.72;2070806;28;29584;-70
2023/04/27 03:11:51;;;;;;;9.75;6.35;;;;;;;-146.25;100.00;52266.81;2070509;28;30111;-70
2023/04/27 03:12:54;;;;;;;8.80;5.30;;;;;;;-146.25;100.00;52295.19;2071759;28;20113;-70
2023/04/27 03:13:56;;;;;;;11.65;5.72;;;;;;;-146.25;100.00;52289.13;2083326;28;20044;-70
2023/04/27 03:14:58;;;;;;;13.90;6.30;;;;;;;-146.25;100.00;52295.19;2078834;28;26770;-70
2023/04/27 03:16:00;;;;;;;11.07;5.78;;;;;;;-146.25;100.00;52327.66;2070542;28;32592;-70
2023/04/27 03:17:02;;;;;;;12.48;5.90;;;;;;;-146.25;100.00;52291.16;2079218;28;29236;-70
2023/04/27 03:18:04;;;;;;;13.35;5.90;;;;;;;-146.25;100.00;52317.50;2079633;28;26499;-70
2023/04/27 03:19:07;;;;;;;14.38;5.88;;;;;;;-146.25;100.00;52281.00;2079419;28;20947;-70
2023/04/27 03:20:11;;;;;;;14.88;7.68;;;;;;;-146.25;100.00;52256.69;2079255;28;21226;-70
2023/04/27 03:21:12;;;;;;;7.78;5.20;;;;;;;-146.25;100.00;52337.78;2079274;28;31354;-68
2023/04/27 03:22:17;;;;;;;13.18;6.40;;;;;;;-146.25;100.00;52283.03;2078790;28;32537;-70
2023/04/27 03:23:19;;;;;;;12.30;6.30;;;;;;;-146.25;100.00;52319.53;2078948;28;30700;-70
2023/04/27 03:24:24;;;;;;;13.63;6.28;;;;;;;-146.25;100.00;52305.34;2079135;28;27592;-66
2023/04/27 03:25:26;;;;;;;15.35;6.28;;;;;;;-146.25;100.00;52331.69;2071319;28;24448;-70
2023/04/27 03:26:28;;;;;;;12.63;6.15;;;;;;;-146.25;100.00;52270.88;2079386;28;20896;-70
2023/04/27 03:27:31;;;;;;;14.48;6.88;;;;;;;-146.25;100.00;52323.59;2079513;28;20034;-70
2023/04/27 03:28:35;;;;;;;14.85;6.28;;;;;;;-146.25;100.00;52283.03;2079542;28;31843;-70
2023/04/27 03:29:37;;;;;;;13.68;6.32;;;;;;;-146.25;100.00;52287.09;2080070;28;29495;-69
2023/04/27 03:30:40;;;;;;;18.88;7.43;;;;;;;-146.25;100.00;52321.56;2078806;28;26454;-70
2023/04/27 03:31:44;;;;;;;11.45;6.43;;;;;;;-146.25;100.00;52270.88;2079609;28;20034;-70
2023/04/27 03:32:45;;;;;;;12.23;6.47;;;;;;;-146.25;100.00;52287.09;2079151;28;31296;-70
2023/04/27 03:33:48;;;;;;;15.77;6.85;;;;;;;-146.25;100.00;52341.84;2078877;28;28196;-70
2023/04/27 03:34:51;;;;;;;9.68;5.60;;;;;;;-146.25;100.00;52256.69;2079084;28;26867;-70
2023/04/27 03:35:56;;;;;;;13.10;6.45;;;;;;;-146.25;100.00;52293.19;2079603;28;27336;-70
2023/04/27 03:37:00;;;;;;;11.18;6.15;;;;;;;-146.25;100.00;52301.28;2079860;28;27145;-70
2023/04/27 03:38:02;;;;;;;13.57;6.63;;;;;;;-146.25;100.00;52315.47;2079504;28;30185;-69
2023/04/27 03:39:06;;;;;;;12.60;6.63;;;;;;;-146.25;100.00;52301.28;2079068;28;20050;-70
2023/04/27 03:40:09;;;;;;;11.88;5.85;;;;;;;-146.25;100.00;52297.22;2079215;28;20049;-70
2023/04/27 03:41:13;;;;;;;12.98;6.55;;;;;;;-146.25;100.00;52270.88;2086667;28;30118;-70
2023/04/27 03:42:15;;;;;;;12.57;6.75;;;;;;;-146.25;100.00;52351.97;2078698;28;20111;-69
2023/04/27 03:43:20;;;;;;;13.18;7.25;;;;;;;-146.25;100.00;52287.09;2079440;28;20054;-69
2023/04/27 03:44:22;;;;;;;10.50;6.13;;;;;;;-146.25;100.00;52325.63;2078142;28;30846;-69
2023/04/27 03:45:25;;;;;;;12.77;6.65;;;;;;;-146.25;100.00;52297.22;2078627;28;20061;-70
2023/04/27 03:46:27;;;;;;;13.75;7.00;;;;;;;-146.25;100.00;52281.00;2071087;28;20081;-70
2023/04/27 03:47:29;;;;;;;11.93;6.15;;;;;;;-146.25;100.00;52327.66;2079354;28;20038;-70
2023/04/27 03:48:31;;;;;;;11.73;6.50;;;;;;;-146.25;100.00;52307.38;2079854;28;24168;-70
2023/04/27 03:49:37;;;;;;;12.63;6.72;;;;;;;-146.25;100.00;52289.13;2079240;28;20049;-69
2023/04/27 03:50:41;;;;;;;9.30;6.05;;;;;;;-146.25;100.00;52323.59;2078701;28;20116;-70
2023/04/27 03:51:42;;;;;;;14.13;7.03;;;;;;;-146.25;100.00;52299.25;2079894;28;20088;-69
2023/04/27 03:52:44;;;;;;;18.90;7.90;;;;;;;-146.25;100.00;52343.88;2079503;28;31059;-69
2023/04/27 03:53:46;;;;;;;11.80;6.97;;;;;;;-146.25;100.00;52335.75;2078981;28;20252;-70
2023/04/27 03:54:48;;;;;;;11.00;6.32;;;;;;;-146.25;100.00;52303.31;2079009;28;20083;-69
2023/04/27 03:55:51;;;;;;;11.40;6.30;;;;;;;-146.25;100.00;52335.75;2079084;28;20092;-70
2023/04/27 03:56:53;;;;;;;13.95;7.18;;;;;;;-146.25;100.00;52309.41;2079139;28;21260;-69
2023/04/27 03:57:55;;;;;;;15.20;7.32;;;;;;;-146.25;100.00;52325.63;2071277;28;20046;-70
2023/04/27 03:58:57;;;;;;;13.57;6.93;;;;;;;-146.25;100.00;52301.28;2071038;28;20050;-70
2023/04/27 04:00:11;;;;;;;13.98;7.32;;;;;;;-146.25;100.00;52309.41;2073536;28;20046;-69
2023/04/27 04:01:17;;;;;;;10.73;6.15;;;;;;;-146.25;100.00;52307.38;2078825;28;20046;-69
2023/04/27 04:02:20;;;;;;;13.15;6.07;;;;;;;-146.25;100.00;52319.53;2079399;28;20085;-68
2023/04/27 04:03:25;;;;;;;12.27;6.95;;;;;;;-146.25;100.00;52291.16;2078932;28;20248;-69
2023/04/27 04:04:27;;;;;;;16.05;7.95;;;;;;;-146.25;100.00;52287.09;2079424;28;20799;-70
2023/04/27 04:05:31;;;;;;;17.35;8.35;;;;;;;-146.25;100.00;52305.34;2079124;28;20038;-70
2023/04/27 04:06:33;;;;;;;15.70;7.95;;;;;;;-146.25;100.00;52315.47;2079339;28;36514;-70
2023/04/27 04:07:35;;;;;;;16.00;7.65;;;;;;;-146.25;100.00;52335.75;2078532;28;24432;-69
2023/04/27 04:08:39;;;;;;;17.13;8.70;;;;;;;-146.25;100.00;52319.53;2078937;28;20046;-70
2023/04/27 04:09:42;;;;;;;16.48;8.10;;;;;;;-146.25;100.00;52309.41;2078683;28;21592;-70
2023/04/27 04:10:45;;;;;;;16.08;8.38;;;;;;;-146.25;100.00;52325.63;2078801;28;20838;-70
2023/04/27 04:11:47;;;;;;;19.92;8.57;;;;;;;-146.25;100.00;52313.44;2070841;28;20161;-70
2023/04/27 04:12:52;;;;;;;15.65;8.95;;;;;;;-146.25;100.00;52325.63;2079402;28;20257;-69
2023/04/27 04:13:54;;;;;;;17.17;8.30;;;;;;;-146.25;100.00;52311.44;2079249;28;20042;-70
2023/04/27 04:14:56;;;;;;;14.77;8.27;;;;;;;-146.25;100.00;52299.25;2070722;28;21160;-70
2023/04/27 04:16:08;;;;;;;12.85;8.07;;;;;;;-146.25;100.00;52323.59;2071073;28;20104;-70
2023/04/27 04:17:10;;;;;;;13.20;6.75;;;;;;;-146.25;100.00;52317.50;2078769;28;22485;-70
2023/04/27 04:18:14;;;;;;;15.30;6.65;;;;;;;-146.25;100.00;52309.41;2071947;28;20205;-70
2023/04/27 04:19:16;;;;;;;13.60;7.45;;;;;;;-146.25;100.00;52289.13;2080816;28;20129;-70
2023/04/27 04:20:21;;;;;;;15.52;7.65;;;;;;;-146.25;100.00;52262.75;2080714;28;27658;-69
2023/04/27 04:21:22;;;;;;;11.98;7.03;;;;;;;-146.25;100.00;52315.47;2080052;28;20929;-69
2023/04/27 04:22:24;;;;;;;11.35;6.70;;;;;;;-146.25;100.00;52311.44;2080253;28;20050;-69
2023/04/27 04:23:26;;;;;;;16.00;7.40;;;;;;;-146.25;100.00;52283.03;2080338;28;20907;-69
2023/04/27 04:24:28;;;;;;;14.75;7.60;;;;;;;-146.25;100.00;52331.69;2079754;28;20802;-69
2023/04/27 04:25:32;;;;;;;16.52;7.75;;;;;;;-146.25;100.00;52325.63;2079305;28;29123;-69
2023/04/27 04:26:34;;;;;;;14.55;7.65;;;;;;;-146.25;100.00;52295.19;2079606;28;20042;-69
2023/04/27 04:27:36;;;;;;;13.57;7.35;;;;;;;-146.25;100.00;52285.06;2071328;28;20043;-69
2023/04/27 04:28:38;;;;;;;13.73;7.60;;;;;;;-146.25;100.00;52315.47;2071752;28;20875;-70
2023/04/27 04:29:40;;;;;;;12.07;7.55;;;;;;;-146.25;100.00;52323.59;2079820;28;22406;-68
2023/04/27 04:30:42;;;;;;;12.82;7.78;;;;;;;-146.25;100.00;52307.38;2086726;28;28231;-69
2023/04/27 04:31:44;;;;;;;14.50;8.02;;;;;;;-146.25;100.00;52307.38;2088245;28;20038;-69
2023/04/27 04:32:45;;;;;;;15.88;8.43;;;;;;;-146.25;100.00;52311.44;2079983;28;28345;-69
2023/04/27 04:33:47;;;;;;;15.98;7.80;;;;;;;-146.25;100.00;52327.66;2080819;28;20172;-70
2023/04/27 04:34:50;;;;;;;13.77;7.65;;;;;;;-146.25;100.00;52337.78;2080283;28;20132;-69
2023/04/27 04:35:53;;;;;;;12.65;8.13;;;;;;;-146.25;100.00;52321.56;2080413;28;20977;-69
2023/04/27 04:36:58;;;;;;;10.52;6.88;;;;;;;-146.25;100.00;52323.59;2071969;28;24236;-70
2023/04/27 04:38:00;;;;;;;9.95;7.05;;;;;;;-146.25;100.00;52335.75;2080319;28;20038;-69
2023/04/27 04:39:04;;;;;;;13.25;7.28;;;;;;;-146.25;100.00;52274.94;2080448;28;20038;-70
2023/04/27 04:40:09;;;;;;;11.88;6.68;;;;;;;-146.25;100.00;52325.63;2080197;28;20172;-69
2023/04/27 04:41:12;;;;;;;8.38;5.65;;;;;;;-146.25;100.00;52368.19;2081141;28;20045;-70
2023/04/27 04:42:14;;;;;;;8.82;6.53;;;;;;;-146.25;100.00;52285.06;2080418;28;26664;-70
2023/04/27 04:43:17;;;;;;;7.97;5.30;;;;;;;-146.25;100.00;52327.66;2080435;28;20042;-70